LERS Airport Information

Runway Information
Runway 07 Length 8054 ft width 148 ft
Elevation 231 ft Threshold 853 ft Heading 69
Runway 25 Length 8054 ft Width 148 ft
Elevation 234 ft Threshold 0 ft Heading 249
Runway 12 Length 3117 ft width 115 ft
Elevation 226 ft Threshold 0 ft Heading 111
Runway 30 Length 3117 ft Width 115 ft
Elevation 198 ft Threshold 0 ft Heading 291
Airport Frequencies
Type APP Name APP Frequency 118.15 MHZ
Type GND Name GND Frequency 121.7 MHZ
Type TWR Name TWR Frequency 118.15 MHZ
Airport Navaids
Type VOR-DME Name Reus Frequency 114200 KHZ
Type NDB Name Reus Frequency 424 KHZ
Airport Weather Information & NOTAM
ADDS - METARS form results

(1107 UTC 18 January 2022)
Data provider http://aviationweather.gov/metar/data/
 
METAR text: LERS 181100Z VRB02KT CAVOK 12/M01 Q1031
Conditions at: LERS (REUS (CIV/MIL) , ES) observed 1100 UTC 18 January 2022
Temperature: 12.0°C (54°F)
Dewpoint: -1.0°C (30°F) [RH = 40%]
Pressure (altimeter): 30.44 inches Hg (1031.0 mb)
Winds: variable direction winds at 2 MPH (2 knots; 1.0 m/s)
Visibility: 6 or more miles (10+ km)
Ceiling: ceiling and visibility are OK
Clouds: unknown
Weather: no significant weather observed at this time

METAR text: LERS 181030Z VRB02KT CAVOK 11/M01 Q1031
Conditions at: LERS (REUS (CIV/MIL) , ES) observed 1030 UTC 18 January 2022
Temperature: 11.0°C (52°F)
Dewpoint: -1.0°C (30°F) [RH = 43%]
Pressure (altimeter): 30.44 inches Hg (1031.0 mb)
Winds: variable direction winds at 2 MPH (2 knots; 1.0 m/s)
Visibility: 6 or more miles (10+ km)
Ceiling: ceiling and visibility are OK
Clouds: unknown
Weather: no significant weather observed at this time

Forecast for: LERS (REUS (CIV/MIL) , ES)
Text: TAF LERS 180800Z 1809/1909 VRB04KT CAVOK TX13/1813Z TN00/1906Z
Forecast period: 0900 UTC 18 January 2022 to 0900 UTC 19 January 2022
Forecast type: FROM: standard forecast or significant change
Winds: variable direction winds at 5 MPH (4 knots; 2.1 m/s)
Visibility: 6 or more miles (10+ km)
Ceiling: unknown
Clouds: missing
Weather: no significant weather forecast for this period
Text: PROB30
Forecast period: 2000 UTC 18 January 2022 to 0200 UTC 19 January 2022
Forecast type: TEMPORARY: The following changes expected for less than half the time period
Winds: from the N (360 degrees) at 9 MPH (8 knots; 4.1 m/s)
Visibility: missing
Ceiling: unknown
Clouds: missing
Weather: no significant weather forecast for this period